createdAt,value
2019-03-30T00:01:49.368Z,6.60
2019-03-30T00:04:17.785Z,6.50
2019-03-30T00:06:46.165Z,6.50
2019-03-30T00:09:14.589Z,6.40
2019-03-30T00:11:42.977Z,6.30
2019-03-30T00:14:11.426Z,6.30
2019-03-30T00:16:59.217Z,6.30
2019-03-30T00:19:34.915Z,6.30
2019-03-30T00:21:57.748Z,6.20
2019-03-30T00:24:26.167Z,6.20
2019-03-30T00:26:54.583Z,6.10
2019-03-30T00:29:23.012Z,6.10
2019-03-30T00:31:51.411Z,6.10
2019-03-30T00:34:19.821Z,6.10
2019-03-30T00:36:48.233Z,6.10
2019-03-30T00:39:16.671Z,6.10
2019-03-30T00:41:45.066Z,6.20
2019-03-30T00:44:13.568Z,6.20
2019-03-30T00:46:41.950Z,5.90
2019-03-30T00:49:10.363Z,5.80
2019-03-30T00:51:38.758Z,5.80
2019-03-30T00:54:07.164Z,5.80
2019-03-30T00:56:35.841Z,5.70
2019-03-30T00:59:04.334Z,5.60
2019-03-30T01:01:32.731Z,5.60
2019-03-30T01:04:01.142Z,5.60
2019-03-30T01:06:29.562Z,5.60
2019-03-30T01:08:57.980Z,5.60
2019-03-30T01:11:26.388Z,5.60
2019-03-30T01:13:54.811Z,5.60
2019-03-30T01:16:23.220Z,5.50
2019-03-30T01:18:51.655Z,5.50
2019-03-30T01:21:20.064Z,5.40
2019-03-30T01:23:48.482Z,5.40
2019-03-30T01:26:16.899Z,5.40
2019-03-30T01:28:45.297Z,5.30
2019-03-30T01:31:13.706Z,5.30
2019-03-30T01:33:42.124Z,5.30
2019-03-30T01:36:10.539Z,5.30
2019-03-30T01:38:38.945Z,5.30
2019-03-30T01:41:07.357Z,5.20
2019-03-30T01:43:35.775Z,5.20
2019-03-30T01:46:04.203Z,5.20
2019-03-30T01:48:32.608Z,5.20
2019-03-30T01:51:01.023Z,5.10
2019-03-30T01:53:29.417Z,5.10
2019-03-30T01:55:57.838Z,5.20
2019-03-30T01:58:26.238Z,5.20
2019-03-30T02:00:54.641Z,5.10
2019-03-30T02:03:23.058Z,5.10
2019-03-30T02:05:51.471Z,5.10
2019-03-30T02:08:19.871Z,5.00
2019-03-30T02:10:48.551Z,5.00
2019-03-30T02:13:16.951Z,5.00
2019-03-30T02:15:45.546Z,4.90
2019-03-30T02:18:13.976Z,4.90
2019-03-30T02:20:47.424Z,4.80
2019-03-30T02:23:15.828Z,4.90
2019-03-30T02:25:44.309Z,4.90
2019-03-30T02:28:12.781Z,4.80
2019-03-30T02:30:41.191Z,4.90
2019-03-30T02:33:09.587Z,4.80
2019-03-30T02:35:38.030Z,4.80
2019-03-30T02:38:06.431Z,4.80
2019-03-30T02:40:34.902Z,4.80
2019-03-30T02:43:03.309Z,4.70
2019-03-30T02:45:31.735Z,4.70
2019-03-30T02:48:00.121Z,4.70
2019-03-30T02:50:28.664Z,4.70
2019-03-30T02:52:57.106Z,4.70
2019-03-30T02:55:25.622Z,4.70
2019-03-30T02:57:54.946Z,4.60
2019-03-30T03:00:23.541Z,4.60
2019-03-30T03:02:52.046Z,4.50
2019-03-30T03:05:39.918Z,4.50
2019-03-30T03:08:08.360Z,4.50
2019-03-30T03:10:36.839Z,4.40
2019-03-30T03:13:05.237Z,4.40
2019-03-30T03:15:33.729Z,4.40
2019-03-30T03:18:02.140Z,4.40
2019-03-30T03:20:30.579Z,4.30
2019-03-30T03:22:58.979Z,4.40
2019-03-30T03:25:27.382Z,4.40
2019-03-30T03:27:56.049Z,4.30
2019-03-30T03:30:24.446Z,4.30
2019-03-30T03:32:52.871Z,4.30
2019-03-30T03:35:21.285Z,4.30
2019-03-30T03:37:49.678Z,4.30
2019-03-30T03:40:18.093Z,4.30
2019-03-30T03:42:46.665Z,4.20
2019-03-30T03:45:15.156Z,4.20
2019-03-30T03:47:43.560Z,4.30
2019-03-30T03:50:15.070Z,4.30
2019-03-30T03:52:43.693Z,4.30
2019-03-30T03:55:12.108Z,4.20
2019-03-30T03:57:42.609Z,4.20
2019-03-30T04:00:11.572Z,4.20
2019-03-30T04:02:39.987Z,4.20
2019-03-30T04:05:10.009Z,4.20
2019-03-30T04:07:40.233Z,4.20
2019-03-30T04:10:09.074Z,4.20
2019-03-30T04:12:37.862Z,4.10
2019-03-30T04:15:08.106Z,4.10
2019-03-30T04:17:36.871Z,4.10
2019-03-30T04:20:06.919Z,4.10
2019-03-30T04:22:35.327Z,4.10
2019-03-30T04:25:05.477Z,4.10
2019-03-30T04:27:33.877Z,4.10
2019-03-30T04:30:02.281Z,4.00
2019-03-30T04:32:30.700Z,4.00
2019-03-30T04:34:59.108Z,4.00
2019-03-30T04:37:27.520Z,4.00
2019-03-30T04:39:55.939Z,4.00
2019-03-30T04:42:24.368Z,4.00
2019-03-30T04:44:52.775Z,4.00
2019-03-30T04:47:21.191Z,4.00
2019-03-30T04:49:49.595Z,4.00
2019-03-30T04:52:19.004Z,4.00
2019-03-30T04:54:47.393Z,4.00
2019-03-30T04:57:15.806Z,4.10
2019-03-30T04:59:44.210Z,4.10
2019-03-30T05:02:12.641Z,4.10
2019-03-30T05:04:41.026Z,4.00
2019-03-30T05:07:09.449Z,4.00
2019-03-30T05:09:57.189Z,4.00
2019-03-30T05:12:25.598Z,4.10
2019-03-30T05:14:53.999Z,4.10
2019-03-30T05:17:22.398Z,4.10
2019-03-30T05:19:50.798Z,4.00
2019-03-30T05:22:19.201Z,4.00
2019-03-30T05:24:47.607Z,4.00
2019-03-30T05:27:16.017Z,4.10
2019-03-30T05:29:44.427Z,4.10
2019-03-30T05:32:12.830Z,4.10
2019-03-30T05:34:41.243Z,4.10
2019-03-30T05:37:09.649Z,4.00
2019-03-30T05:39:38.045Z,4.10
2019-03-30T05:42:06.477Z,4.10
2019-03-30T05:44:34.877Z,4.20
2019-03-30T05:47:03.300Z,4.20
2019-03-30T05:49:31.698Z,4.20
2019-03-30T05:52:00.107Z,4.30
2019-03-30T05:54:28.496Z,4.30
2019-03-30T05:56:56.931Z,4.30
2019-03-30T05:59:25.334Z,4.30
2019-03-30T06:01:53.734Z,4.20
2019-03-30T06:04:22.129Z,4.30
2019-03-30T06:06:50.551Z,4.30
2019-03-30T06:09:18.945Z,4.40
2019-03-30T06:11:47.362Z,4.50
2019-03-30T06:14:15.762Z,4.60
2019-03-30T06:16:44.194Z,4.70
2019-03-30T06:19:12.586Z,4.80
2019-03-30T06:21:41.019Z,4.90
2019-03-30T06:24:09.415Z,5.00
2019-03-30T06:26:37.821Z,5.10
2019-03-30T06:29:06.217Z,5.10
2019-03-30T06:31:34.627Z,5.30
2019-03-30T06:34:03.026Z,5.40
2019-03-30T06:36:32.401Z,5.50
2019-03-30T06:39:00.801Z,5.60
2019-03-30T06:41:29.221Z,5.60
2019-03-30T06:43:57.628Z,5.70
2019-03-30T06:46:45.445Z,5.80
2019-03-30T06:49:13.837Z,5.90
2019-03-30T06:51:42.250Z,6.00
2019-03-30T06:54:10.668Z,6.20
2019-03-30T06:56:39.077Z,6.20
2019-03-30T06:59:07.476Z,6.40
2019-03-30T07:01:35.899Z,6.50
2019-03-30T07:04:04.309Z,6.60
2019-03-30T07:06:32.856Z,6.80
2019-03-30T07:09:04.471Z,7.00
2019-03-30T07:11:35.953Z,7.00
2019-03-30T07:14:04.635Z,7.20
2019-03-30T07:16:36.265Z,7.40
2019-03-30T07:19:05.096Z,7.60
2019-03-30T07:21:33.520Z,7.90
2019-03-30T07:24:01.922Z,8.10
2019-03-30T07:26:30.336Z,8.20
2019-03-30T07:28:58.731Z,8.20
2019-03-30T07:31:27.134Z,8.50
2019-03-30T07:33:55.537Z,8.70
2019-03-30T07:36:23.961Z,8.90
2019-03-30T07:38:52.374Z,9.00
2019-03-30T07:41:20.780Z,9.20
2019-03-30T07:43:49.194Z,9.30
2019-03-30T07:46:19.562Z,9.50
2019-03-30T07:48:47.720Z,9.60
2019-03-30T07:51:16.453Z,9.70
2019-03-30T07:53:45.169Z,9.90
2019-03-30T07:56:13.743Z,10.00
2019-03-30T07:58:43.242Z,10.10
2019-03-30T08:01:11.651Z,10.20
2019-03-30T08:03:41.264Z,10.40
2019-03-30T08:06:09.690Z,10.50
2019-03-30T08:08:38.099Z,10.80
2019-03-30T08:11:06.499Z,10.90
2019-03-30T08:13:34.918Z,11.10
2019-03-30T08:16:03.578Z,11.30
2019-03-30T08:18:32.019Z,11.50
2019-03-30T08:21:00.406Z,11.60
2019-03-30T08:23:39.823Z,11.80
2019-03-30T08:25:58.944Z,11.90
2019-03-30T08:28:27.378Z,12.10
2019-03-30T08:30:55.783Z,12.30
2019-03-30T08:33:24.441Z,12.50
2019-03-30T08:35:52.846Z,12.60
2019-03-30T08:38:21.274Z,12.70
2019-03-30T08:40:49.692Z,12.70
2019-03-30T08:43:18.201Z,12.80
2019-03-30T08:45:48.962Z,13.10
2019-03-30T08:48:16.797Z,13.20
2019-03-30T08:50:45.190Z,13.30
2019-03-30T08:53:13.648Z,13.40
2019-03-30T08:55:42.073Z,13.50
2019-03-30T08:58:10.575Z,13.80
2019-03-30T09:00:42.582Z,14.00
2019-03-30T09:03:11.447Z,14.10
2019-03-30T09:05:40.134Z,14.40
2019-03-30T09:08:08.619Z,14.60
2019-03-30T09:10:42.025Z,14.80
2019-03-30T09:13:10.430Z,14.90
2019-03-30T09:15:38.847Z,14.90
2019-03-30T09:18:07.347Z,14.80
2019-03-30T09:20:35.735Z,15.10
2019-03-30T09:23:04.150Z,15.30
2019-03-30T09:25:32.559Z,15.30
2019-03-30T09:28:00.966Z,15.40
2019-03-30T09:30:29.422Z,15.60
2019-03-30T09:32:57.827Z,15.80
2019-03-30T09:35:26.269Z,16.00
2019-03-30T09:37:54.654Z,16.10
2019-03-30T09:40:42.407Z,16.40
2019-03-30T09:43:10.802Z,16.50
2019-03-30T09:45:39.223Z,16.70
2019-03-30T09:48:07.638Z,16.70
2019-03-30T09:50:36.341Z,16.70
2019-03-30T09:53:04.745Z,16.80
2019-03-30T09:55:33.408Z,17.00
2019-03-30T09:58:02.121Z,17.10
2019-03-30T10:00:30.569Z,17.00
2019-03-30T10:02:58.978Z,17.20
2019-03-30T10:05:27.384Z,17.30
2019-03-30T10:07:55.784Z,17.40
2019-03-30T10:10:24.209Z,17.70
2019-03-30T10:12:52.717Z,17.80
2019-03-30T10:15:21.127Z,17.50
2019-03-30T10:17:49.544Z,17.50
2019-03-30T10:20:17.949Z,17.50
2019-03-30T10:22:46.355Z,17.70
2019-03-30T10:25:34.103Z,17.80
2019-03-30T10:28:02.519Z,17.90
2019-03-30T10:30:30.931Z,18.20
2019-03-30T10:32:59.349Z,18.60
2019-03-30T10:35:27.759Z,18.90
2019-03-30T10:37:56.188Z,19.10
2019-03-30T10:40:24.587Z,19.30
2019-03-30T10:42:53.002Z,19.60
2019-03-30T10:45:21.434Z,19.80
2019-03-30T10:47:49.842Z,19.90
2019-03-30T10:50:18.382Z,20.00
2019-03-30T10:52:46.786Z,20.00
2019-03-30T10:55:15.206Z,19.90
2019-03-30T10:57:43.711Z,20.10
2019-03-30T11:00:14.399Z,20.10
2019-03-30T11:02:42.813Z,20.00
2019-03-30T11:05:11.280Z,20.20
2019-03-30T11:07:39.714Z,20.30
2019-03-30T11:10:08.984Z,20.40
2019-03-30T11:12:37.393Z,20.60
2019-03-30T11:15:06.861Z,20.50
2019-03-30T11:17:35.336Z,20.40
2019-03-30T11:20:04.227Z,20.30
2019-03-30T11:22:32.631Z,20.50
2019-03-30T11:25:07.976Z,20.60
2019-03-30T11:27:31.236Z,20.80
2019-03-30T11:30:01.594Z,21.00
2019-03-30T11:32:30.030Z,21.10
2019-03-30T11:34:58.477Z,21.30
2019-03-30T11:37:26.942Z,21.50
2019-03-30T11:39:55.341Z,21.30
2019-03-30T11:42:23.778Z,21.20
2019-03-30T11:44:54.033Z,21.20
2019-03-30T11:47:22.477Z,21.30
2019-03-30T11:49:50.897Z,21.30
2019-03-30T11:52:19.323Z,21.20
2019-03-30T11:54:47.738Z,21.40
2019-03-30T11:57:16.165Z,21.40
2019-03-30T11:59:44.556Z,21.60
2019-03-30T12:02:27.027Z,21.60
2019-03-30T12:04:43.104Z,21.60
2019-03-30T12:07:11.518Z,21.50
2019-03-30T12:09:39.925Z,21.80
2019-03-30T12:12:08.386Z,22.00
2019-03-30T12:14:36.826Z,22.00
2019-03-30T12:17:05.313Z,22.00
2019-03-30T12:19:33.755Z,22.00
2019-03-30T12:22:02.150Z,22.20
2019-03-30T12:24:30.564Z,22.20
2019-03-30T12:26:59.055Z,22.30
2019-03-30T12:29:27.463Z,22.00
2019-03-30T12:31:55.858Z,22.00
2019-03-30T12:34:24.270Z,21.90
2019-03-30T12:36:55.645Z,21.90
2019-03-30T12:39:22.811Z,21.70
2019-03-30T12:41:51.211Z,22.00
2019-03-30T12:44:19.633Z,22.20
2019-03-30T12:46:48.071Z,22.40
2019-03-30T12:49:16.495Z,22.40
2019-03-30T12:51:44.900Z,22.60
2019-03-30T12:54:13.377Z,22.40
2019-03-30T12:56:41.781Z,22.50
2019-03-30T12:59:10.233Z,22.50
2019-03-30T13:01:38.758Z,22.50
2019-03-30T13:04:07.203Z,22.40
2019-03-30T13:06:35.624Z,22.30
2019-03-30T13:09:06.075Z,22.50
2019-03-30T13:11:34.497Z,22.70
2019-03-30T13:14:02.983Z,22.60
2019-03-30T13:16:31.387Z,22.60
2019-03-30T13:19:00.785Z,22.50
2019-03-30T13:21:32.155Z,22.40
2019-03-30T13:23:59.402Z,22.20
2019-03-30T13:26:27.819Z,22.20
2019-03-30T13:28:56.227Z,22.40
2019-03-30T13:31:24.630Z,22.50
2019-03-30T13:33:53.057Z,22.30
2019-03-30T13:36:23.105Z,22.10
2019-03-30T13:38:51.504Z,22.10
2019-03-30T13:41:19.950Z,22.30
2019-03-30T13:43:48.356Z,22.40
2019-03-30T13:46:16.771Z,22.50
2019-03-30T13:48:45.180Z,22.70
2019-03-30T13:51:13.594Z,22.80
2019-03-30T13:53:42.005Z,22.90
2019-03-30T13:56:17.078Z,23.10
2019-03-30T13:58:40.537Z,22.90
2019-03-30T14:01:08.954Z,22.90
2019-03-30T14:03:37.364Z,22.80
2019-03-30T14:06:05.843Z,22.60
2019-03-30T14:08:34.257Z,22.60
2019-03-30T14:11:02.666Z,22.50
2019-03-30T14:13:38.009Z,22.50
2019-03-30T14:16:06.439Z,22.70
2019-03-30T14:18:34.844Z,22.80
2019-03-30T14:21:03.270Z,22.60
2019-03-30T14:23:33.575Z,22.50
2019-03-30T14:26:02.003Z,22.50
2019-03-30T14:28:30.404Z,22.60
2019-03-30T14:30:58.892Z,22.60
2019-03-30T14:33:27.304Z,22.50
2019-03-30T14:35:55.735Z,22.30
2019-03-30T14:38:24.146Z,22.20
2019-03-30T14:40:52.559Z,22.10
2019-03-30T14:43:20.957Z,22.30
2019-03-30T14:45:49.382Z,22.20
2019-03-30T14:48:17.794Z,22.20
2019-03-30T14:50:46.301Z,22.20
2019-03-30T14:53:14.781Z,22.40
2019-03-30T14:55:43.238Z,22.50
2019-03-30T14:58:11.713Z,22.50
2019-03-30T15:00:40.202Z,22.60
2019-03-30T15:03:08.731Z,22.60
2019-03-30T15:05:37.130Z,22.60
2019-03-30T15:08:05.548Z,22.70
2019-03-30T15:10:33.942Z,22.80
2019-03-30T15:13:03.300Z,22.80
2019-03-30T15:15:31.714Z,22.80
2019-03-30T15:18:00.128Z,22.80
2019-03-30T15:20:28.538Z,22.70
2019-03-30T15:22:56.943Z,22.40
2019-03-30T15:25:26.403Z,22.30
2019-03-30T15:27:54.795Z,22.20
2019-03-30T15:30:23.215Z,22.30
2019-03-30T15:32:51.619Z,22.40
2019-03-30T15:35:22.007Z,22.30
2019-03-30T15:37:50.412Z,22.20
2019-03-30T15:40:18.967Z,22.30
2019-03-30T15:42:47.381Z,22.10
2019-03-30T15:45:15.801Z,22.10
2019-03-30T15:47:44.218Z,22.10
2019-03-30T15:50:13.160Z,22.00
2019-03-30T15:52:41.640Z,21.80
2019-03-30T15:55:10.128Z,21.80
2019-03-30T15:57:38.553Z,21.40
2019-03-30T16:00:10.026Z,21.40
2019-03-30T16:02:38.530Z,21.50
2019-03-30T16:05:07.576Z,21.40
2019-03-30T16:07:36.114Z,21.30
2019-03-30T16:10:05.755Z,21.30
2019-03-30T16:12:34.166Z,21.20
2019-03-30T16:15:03.619Z,21.20
2019-03-30T16:17:32.044Z,21.00
2019-03-30T16:20:00.455Z,21.00
2019-03-30T16:22:28.875Z,20.90
2019-03-30T16:24:57.282Z,20.80
2019-03-30T16:27:45.123Z,20.70
2019-03-30T16:30:13.779Z,20.60
2019-03-30T16:32:42.208Z,20.50
2019-03-30T16:35:10.612Z,20.50
2019-03-30T16:37:39.033Z,20.50
2019-03-30T16:40:07.501Z,20.50
2019-03-30T16:42:36.340Z,20.40
2019-03-30T16:45:06.645Z,20.40
2019-03-30T16:47:35.060Z,20.50
2019-03-30T16:50:05.000Z,20.50
2019-03-30T16:52:33.432Z,20.50
2019-03-30T16:55:01.839Z,20.60
2019-03-30T16:57:42.605Z,20.70
2019-03-30T17:00:01.316Z,20.90
2019-03-30T17:02:29.884Z,20.70
2019-03-30T17:04:58.330Z,20.70
2019-03-30T17:07:26.806Z,20.60
2019-03-30T17:09:55.213Z,20.50
2019-03-30T17:12:26.687Z,20.40
2019-03-30T17:14:55.156Z,20.40
2019-03-30T17:17:23.660Z,20.50
2019-03-30T17:19:52.096Z,20.50
2019-03-30T17:22:20.565Z,20.40
2019-03-30T17:24:48.979Z,20.20
2019-03-30T17:27:17.475Z,20.10
2019-03-30T17:29:45.866Z,20.00
2019-03-30T17:32:14.287Z,19.80
2019-03-30T17:34:42.848Z,19.60
2019-03-30T17:37:14.337Z,19.30
2019-03-30T17:39:41.390Z,18.80
2019-03-30T17:42:09.805Z,18.60
2019-03-30T17:44:38.300Z,18.30
2019-03-30T17:47:06.790Z,18.10
2019-03-30T17:49:35.186Z,17.70
2019-03-30T17:52:03.600Z,17.30
2019-03-30T17:54:32.038Z,17.00
2019-03-30T17:57:00.521Z,16.60
2019-03-30T17:59:29.847Z,16.30
2019-03-30T18:01:58.265Z,16.10
2019-03-30T18:04:26.670Z,15.80
2019-03-30T18:06:55.084Z,15.60
2019-03-30T18:09:23.558Z,15.40
2019-03-30T18:11:51.943Z,15.20
2019-03-30T18:14:20.350Z,14.90
2019-03-30T18:17:08.137Z,14.70
2019-03-30T18:19:36.581Z,14.50
2019-03-30T18:22:05.005Z,14.40
2019-03-30T18:24:33.414Z,14.20
2019-03-30T18:27:01.810Z,14.00
2019-03-30T18:29:30.240Z,13.80
2019-03-30T18:31:58.984Z,13.90
2019-03-30T18:34:27.932Z,13.90
2019-03-30T18:36:56.882Z,13.90
2019-03-30T18:39:25.484Z,13.90
2019-03-30T18:41:53.895Z,13.80
2019-03-30T18:44:22.482Z,13.70
2019-03-30T18:46:50.873Z,13.60
2019-03-30T18:49:19.275Z,13.40
2019-03-30T18:51:49.323Z,13.40
2019-03-30T18:54:17.807Z,13.30
2019-03-30T18:56:46.215Z,13.30
2019-03-30T18:59:14.652Z,13.20
2019-03-30T19:01:43.052Z,13.00
2019-03-30T19:04:11.467Z,12.80
2019-03-30T19:06:39.871Z,12.80
2019-03-30T19:09:08.305Z,12.70
2019-03-30T19:11:36.703Z,12.60
2019-03-30T19:14:05.116Z,12.40
2019-03-30T19:16:33.533Z,12.30
2019-03-30T19:19:01.941Z,12.30
2019-03-30T19:21:30.345Z,12.40
2019-03-30T19:23:58.780Z,12.40
2019-03-30T19:26:27.186Z,12.40
2019-03-30T19:28:56.862Z,12.30
2019-03-30T19:31:25.500Z,12.20
2019-03-30T19:33:53.924Z,12.00
2019-03-30T19:36:22.319Z,12.00
2019-03-30T19:38:50.759Z,12.10
2019-03-30T19:41:19.156Z,12.00
2019-03-30T19:43:47.562Z,12.00
2019-03-30T19:46:15.971Z,12.00
2019-03-30T19:48:44.422Z,11.80
2019-03-30T19:51:13.845Z,11.70
2019-03-30T19:53:42.261Z,11.60
2019-03-30T19:56:10.723Z,11.40
2019-03-30T19:58:39.133Z,11.40
2019-03-30T20:01:07.526Z,11.30
2019-03-30T20:03:35.965Z,11.20
2019-03-30T20:06:04.340Z,11.00
2019-03-30T20:08:32.754Z,10.90
2019-03-30T20:11:01.163Z,10.70
2019-03-30T20:13:29.598Z,10.70
2019-03-30T20:15:58.003Z,10.70
2019-03-30T20:18:26.412Z,10.80
2019-03-30T20:20:54.836Z,10.80
2019-03-30T20:23:23.230Z,10.80
2019-03-30T20:25:51.660Z,10.70
2019-03-30T20:28:20.126Z,10.80
2019-03-30T20:30:48.550Z,10.80
2019-03-30T20:33:16.945Z,10.80
2019-03-30T20:35:45.349Z,10.70
2019-03-30T20:38:13.773Z,10.80
2019-03-30T20:40:42.188Z,10.70
2019-03-30T20:43:10.595Z,10.70
2019-03-30T20:45:39.001Z,10.60
2019-03-30T20:48:07.412Z,10.60
2019-03-30T20:50:35.830Z,10.50
2019-03-30T20:53:04.299Z,10.50
2019-03-30T20:55:34.068Z,10.50
2019-03-30T20:58:03.551Z,10.50
2019-03-30T21:00:31.961Z,10.40
2019-03-30T21:03:00.378Z,10.40
2019-03-30T21:05:28.804Z,10.40
2019-03-30T21:07:57.214Z,10.30
2019-03-30T21:10:25.646Z,10.30
2019-03-30T21:12:55.029Z,10.20
2019-03-30T21:15:23.460Z,10.20
2019-03-30T21:17:51.862Z,10.20
2019-03-30T21:20:20.287Z,10.10
2019-03-30T21:22:48.685Z,10.00
2019-03-30T21:25:17.159Z,9.80
2019-03-30T21:27:45.574Z,9.80
2019-03-30T21:30:15.476Z,9.80
2019-03-30T21:32:43.875Z,9.80
2019-03-30T21:35:12.465Z,9.70
2019-03-30T21:37:40.878Z,9.70
2019-03-30T21:40:09.429Z,9.60
2019-03-30T21:42:37.823Z,9.50
2019-03-30T21:45:08.891Z,9.40
2019-03-30T21:47:37.345Z,9.40
2019-03-30T21:50:08.007Z,9.40
2019-03-30T21:52:36.413Z,9.40
2019-03-30T21:55:06.181Z,9.20
2019-03-30T21:57:34.570Z,9.20
2019-03-30T22:00:09.805Z,9.20
2019-03-30T22:02:33.479Z,9.10
2019-03-30T22:05:01.957Z,9.00
2019-03-30T22:07:30.700Z,9.00
2019-03-30T22:09:59.176Z,9.00
2019-03-30T22:12:27.574Z,8.90
2019-03-30T22:14:56.169Z,8.90
2019-03-30T22:17:24.571Z,8.90
2019-03-30T22:19:52.984Z,8.90
2019-03-30T22:22:21.377Z,8.80
2019-03-30T22:25:09.295Z,8.70
2019-03-30T22:27:37.681Z,8.70
2019-03-30T22:30:08.043Z,8.60
2019-03-30T22:32:36.431Z,8.50
2019-03-30T22:35:05.972Z,8.50
2019-03-30T22:37:34.370Z,8.40
2019-03-30T22:40:02.865Z,8.40
2019-03-30T22:42:31.274Z,8.40
2019-03-30T22:44:59.762Z,8.30
2019-03-30T22:47:28.150Z,8.20
2019-03-30T22:49:56.543Z,8.20
2019-03-30T22:52:25.010Z,8.30
2019-03-30T22:54:53.416Z,8.30
2019-03-30T22:57:21.818Z,8.30
2019-03-30T22:59:50.219Z,8.20
2019-03-30T23:02:18.644Z,8.20
2019-03-30T23:04:47.050Z,8.20
2019-03-30T23:07:16.426Z,8.20
2019-03-30T23:09:44.818Z,8.10
2019-03-30T23:12:13.234Z,8.10
2019-03-30T23:14:41.629Z,8.10
2019-03-30T23:17:10.026Z,8.00
2019-03-30T23:19:38.429Z,7.90
2019-03-30T23:22:06.834Z,7.80
2019-03-30T23:24:37.216Z,7.70
2019-03-30T23:27:05.617Z,7.70
2019-03-30T23:29:34.033Z,7.70
2019-03-30T23:32:02.447Z,7.60
2019-03-30T23:34:30.857Z,7.60
2019-03-30T23:36:59.317Z,7.60
2019-03-30T23:39:28.703Z,7.60
2019-03-30T23:41:57.124Z,7.60
2019-03-30T23:44:25.529Z,7.50
2019-03-30T23:46:53.934Z,7.50
2019-03-30T23:49:22.339Z,7.40
2019-03-30T23:51:50.767Z,7.40
2019-03-30T23:54:21.155Z,7.30
2019-03-30T23:56:49.557Z,7.30
2019-03-30T23:59:17.945Z,7.20
